sensor_id;sensor_type;location;lat;lon;timestamp;pressure;altitude;pressure_sealevel;temperature;humidity
21980;BME280;11154;48.558;9.234;2023-05-12T00:01:07;97234.63;;;15.27;100.00
21980;BME280;11154;48.558;9.234;2023-05-12T00:03:09;97237.94;;;15.29;100.00
21980;BME280;11154;48.558;9.234;2023-05-12T00:05:10;97229.28;;;15.27;100.00
21980;BME280;11154;48.558;9.234;2023-05-12T00:07:14;97224.56;;;15.29;100.00
21980;BME280;11154;48.558;9.234;2023-05-12T00:09:16;97228.91;;;15.30;100.00
21980;BME280;11154;48.558;9.234;2023-05-12T00:11:17;97219.84;;;15.31;100.00
21980;BME280;11154;48.558;9.234;2023-05-12T00:13:20;97220.84;;;15.30;100.00
21980;BME280;11154;48.558;9.234;2023-05-12T00:15:23;97219.41;;;15.28;100.00
21980;BME280;11154;48.558;9.234;2023-05-12T00:17:24;97206.09;;;14.80;100.00
21980;BME280;11154;48.558;9.234;2023-05-12T00:19:27;97218.72;;;14.65;100.00
21980;BME280;11154;48.558;9.234;2023-05-12T00:21:28;97214.47;;;14.77;100.00
21980;BME280;11154;48.558;9.234;2023-05-12T00:23:33;97214.94;;;14.80;100.00
21980;BME280;11154;48.558;9.234;2023-05-12T00:25:34;97212.66;;;14.77;100.00
21980;BME280;11154;48.558;9.234;2023-05-12T00:27:36;97207.09;;;14.79;100.00
21980;BME280;11154;48.558;9.234;2023-05-12T00:29:38;97205.44;;;14.78;100.00
21980;BME280;11154;48.558;9.234;2023-05-12T00:31:40;97199.72;;;14.81;100.00
21980;BME280;11154;48.558;9.234;2023-05-12T00:33:41;97204.66;;;14.84;100.00
21980;BME280;11154;48.558;9.234;2023-05-12T00:35:43;97205.47;;;14.84;100.00
21980;BME280;11154;48.558;9.234;2023-05-12T00:37:45;97200.13;;;14.84;100.00
21980;BME280;11154;48.558;9.234;2023-05-12T00:39:48;97204.84;;;14.82;100.00
21980;BME280;11154;48.558;9.234;2023-05-12T00:41:54;97208.31;;;14.76;100.00
21980;BME280;11154;48.558;9.234;2023-05-12T00:43:56;97201.25;;;14.69;100.00
21980;BME280;11154;48.558;9.234;2023-05-12T00:45:58;97218.97;;;14.70;100.00
21980;BME280;11154;48.558;9.234;2023-05-12T00:47:59;97205.56;;;14.97;100.00
21980;BME280;11154;48.558;9.234;2023-05-12T00:50:02;97209.75;;;15.06;100.00
21980;BME280;11154;48.558;9.234;2023-05-12T00:52:05;97206.28;;;15.12;100.00
21980;BME280;11154;48.558;9.234;2023-05-12T00:54:07;97207.75;;;15.14;100.00
21980;BME280;11154;48.558;9.234;2023-05-12T00:56:11;97202.59;;;15.19;100.00
21980;BME280;11154;48.558;9.234;2023-05-12T00:58:13;97202.00;;;15.17;100.00
21980;BME280;11154;48.558;9.234;2023-05-12T01:00:15;97200.72;;;15.13;100.00
21980;BME280;11154;48.558;9.234;2023-05-12T01:02:17;97207.94;;;15.13;100.00
21980;BME280;11154;48.558;9.234;2023-05-12T01:04:19;97204.44;;;15.13;100.00
21980;BME280;11154;48.558;9.234;2023-05-12T01:06:25;97207.13;;;15.13;100.00
21980;BME280;11154;48.558;9.234;2023-05-12T01:08:30;97197.44;;;15.12;100.00
21980;BME280;11154;48.558;9.234;2023-05-12T01:10:32;97208.97;;;15.12;100.00
21980;BME280;11154;48.558;9.234;2023-05-12T01:12:35;97206.50;;;15.11;100.00
21980;BME280;11154;48.558;9.234;2023-05-12T01:14:37;97210.19;;;15.10;100.00
21980;BME280;11154;48.558;9.234;2023-05-12T01:16:44;97210.19;;;15.10;100.00
21980;BME280;11154;48.558;9.234;2023-05-12T01:18:46;97206.41;;;14.98;100.00
21980;BME280;11154;48.558;9.234;2023-05-12T01:20:51;97210.50;;;14.94;100.00
21980;BME280;11154;48.558;9.234;2023-05-12T01:22:54;97211.53;;;14.93;100.00
21980;BME280;11154;48.558;9.234;2023-05-12T01:24:57;97207.19;;;14.92;100.00
21980;BME280;11154;48.558;9.234;2023-05-12T01:27:02;97208.59;;;14.88;100.00
21980;BME280;11154;48.558;9.234;2023-05-12T01:29:04;97212.47;;;14.85;100.00
21980;BME280;11154;48.558;9.234;2023-05-12T01:31:07;97215.34;;;14.84;100.00
21980;BME280;11154;48.558;9.234;2023-05-12T01:33:09;97211.03;;;14.83;100.00
21980;BME280;11154;48.558;9.234;2023-05-12T01:35:11;97210.41;;;14.81;100.00
21980;BME280;11154;48.558;9.234;2023-05-12T01:37:13;97218.69;;;14.86;100.00
21980;BME280;11154;48.558;9.234;2023-05-12T01:39:15;97201.00;;;14.91;100.00
21980;BME280;11154;48.558;9.234;2023-05-12T01:41:16;97210.50;;;14.94;100.00
21980;BME280;11154;48.558;9.234;2023-05-12T01:43:19;97207.63;;;14.95;100.00
21980;BME280;11154;48.558;9.234;2023-05-12T01:45:21;97206.41;;;14.98;100.00
21980;BME280;11154;48.558;9.234;2023-05-12T01:47:23;97200.63;;;15.01;100.00
21980;BME280;11154;48.558;9.234;2023-05-12T01:49:25;97211.34;;;15.01;100.00
21980;BME280;11154;48.558;9.234;2023-05-12T01:51:26;97209.72;;;15.00;100.00
21980;BME280;11154;48.558;9.234;2023-05-12T01:53:28;97213.00;;;15.02;100.00
21980;BME280;11154;48.558;9.234;2023-05-12T01:55:30;97210.53;;;15.00;100.00
21980;BME280;11154;48.558;9.234;2023-05-12T01:57:32;97210.09;;;14.97;100.00
21980;BME280;11154;48.558;9.234;2023-05-12T01:59:35;97210.91;;;14.97;100.00
21980;BME280;11154;48.558;9.234;2023-05-12T02:01:36;97203.94;;;14.96;100.00
21980;BME280;11154;48.558;9.234;2023-05-12T02:03:38;97194.63;;;14.65;100.00
21980;BME280;11154;48.558;9.234;2023-05-12T02:05:40;97200.22;;;14.43;100.00
21980;BME280;11154;48.558;9.234;2023-05-12T02:07:41;97208.22;;;14.63;100.00
21980;BME280;11154;48.558;9.234;2023-05-12T02:09:43;97200.22;;;14.70;100.00
21980;BME280;11154;48.558;9.234;2023-05-12T02:11:45;97203.34;;;14.73;100.00
21980;BME280;11154;48.558;9.234;2023-05-12T02:13:46;97199.88;;;14.79;100.00
21980;BME280;11154;48.558;9.234;2023-05-12T02:15:49;97202.56;;;14.79;100.00
21980;BME280;11154;48.558;9.234;2023-05-12T02:17:51;97200.88;;;14.72;100.00
21980;BME280;11154;48.558;9.234;2023-05-12T02:19:54;97205.78;;;14.68;100.00
21980;BME280;11154;48.558;9.234;2023-05-12T02:21:56;97201.44;;;14.67;100.00
21980;BME280;11154;48.558;9.234;2023-05-12T02:23:57;97204.97;;;14.68;100.00
21980;BME280;11154;48.558;9.234;2023-05-12T02:25:59;97201.25;;;14.69;100.00
21980;BME280;11154;48.558;9.234;2023-05-12T02:28:01;97198.72;;;14.61;100.00
21980;BME280;11154;48.558;9.234;2023-05-12T02:30:05;97195.97;;;14.54;100.00
21980;BME280;11154;48.558;9.234;2023-05-12T02:32:08;97197.41;;;14.50;100.00
21980;BME280;11154;48.558;9.234;2023-05-12T02:34:10;97204.19;;;14.74;100.00
21980;BME280;11154;48.558;9.234;2023-05-12T02:36:12;97200.97;;;14.85;100.00
21980;BME280;11154;48.558;9.234;2023-05-12T02:38:13;97217.50;;;14.95;100.00
21980;BME280;11154;48.558;9.234;2023-05-12T02:40:15;97201.47;;;15.01;100.00
21980;BME280;11154;48.558;9.234;2023-05-12T02:42:17;97201.91;;;15.05;100.00
21980;BME280;11154;48.558;9.234;2023-05-12T02:44:19;97205.84;;;15.09;100.00
21980;BME280;11154;48.558;9.234;2023-05-12T02:46:21;97200.25;;;15.04;100.00
21980;BME280;11154;48.558;9.234;2023-05-12T02:48:24;97201.91;;;15.05;100.00
21980;BME280;11154;48.558;9.234;2023-05-12T02:50:26;97204.41;;;15.06;100.00
21980;BME280;11154;48.558;9.234;2023-05-12T02:52:28;97206.06;;;15.07;100.00
21980;BME280;11154;48.558;9.234;2023-05-12T02:54:30;97210.56;;;15.07;100.00
21980;BME280;11154;48.558;9.234;2023-05-12T02:56:31;97208.66;;;15.01;100.00
21980;BME280;11154;48.558;9.234;2023-05-12T02:58:33;97206.41;;;14.98;100.00
21980;BME280;11154;48.558;9.234;2023-05-12T03:00:35;97197.34;;;14.99;100.00
21980;BME280;11154;48.558;9.234;2023-05-12T03:02:38;97202.88;;;14.97;100.00
21980;BME280;11154;48.558;9.234;2023-05-12T03:04:41;97205.56;;;14.97;100.00
21980;BME280;11154;48.558;9.234;2023-05-12T03:06:43;97197.16;;;15.00;100.00
21980;BME280;11154;48.558;9.234;2023-05-12T03:08:45;97197.97;;;15.01;100.00
21980;BME280;11154;48.558;9.234;2023-05-12T03:10:47;97208.06;;;14.99;100.00
21980;BME280;11154;48.558;9.234;2023-05-12T03:12:49;97206.59;;;14.96;100.00
21980;BME280;11154;48.558;9.234;2023-05-12T03:14:50;97199.38;;;14.97;100.00
21980;BME280;11154;48.558;9.234;2023-05-12T03:16:52;97205.53;;;14.91;100.00
21980;BME280;11154;48.558;9.234;2023-05-12T03:18:54;97206.97;;;14.87;100.00
21980;BME280;11154;48.558;9.234;2023-05-12T03:20:57;97202.63;;;14.86;100.00
21980;BME280;11154;48.558;9.234;2023-05-12T03:22:59;97206.53;;;14.83;100.00
21980;BME280;11154;48.558;9.234;2023-05-12T03:25:00;97200.97;;;14.85;100.00
21980;BME280;11154;48.558;9.234;2023-05-12T03:27:03;97205.91;;;14.88;100.00
21980;BME280;11154;48.558;9.234;2023-05-12T03:29:05;97203.22;;;14.88;100.00
21980;BME280;11154;48.558;9.234;2023-05-12T03:31:07;97203.28;;;14.94;100.00
21980;BME280;11154;48.558;9.234;2023-05-12T03:33:09;97212.78;;;14.97;100.00
21980;BME280;11154;48.558;9.234;2023-05-12T03:35:11;97206.59;;;14.96;100.00
21980;BME280;11154;48.558;9.234;2023-05-12T03:37:14;97209.91;;;14.98;100.00
21980;BME280;11154;48.558;9.234;2023-05-12T03:39:16;97201.88;;;14.98;100.00
21980;BME280;11154;48.558;9.234;2023-05-12T03:41:17;97196.13;;;15.01;100.00
21980;BME280;11154;48.558;9.234;2023-05-12T03:43:19;97194.91;;;15.04;100.00
21980;BME280;11154;48.558;9.234;2023-05-12T03:45:21;97195.53;;;15.06;100.00
21980;BME280;11154;48.558;9.234;2023-05-12T03:47:23;97194.50;;;15.07;100.00
21980;BME280;11154;48.558;9.234;2023-05-12T03:49:24;97193.88;;;15.05;100.00
21980;BME280;11154;48.558;9.234;2023-05-12T03:51:26;97191.59;;;15.02;100.00
21980;BME280;11154;48.558;9.234;2023-05-12T03:53:29;97199.63;;;15.02;100.00
21980;BME280;11154;48.558;9.234;2023-05-12T03:55:31;97192.81;;;14.99;100.00
21980;BME280;11154;48.558;9.234;2023-05-12T03:57:33;97194.91;;;15.04;100.00
21980;BME280;11154;48.558;9.234;2023-05-12T03:59:35;97187.31;;;15.07;100.00
21980;BME280;11154;48.558;9.234;2023-05-12T04:01:37;97193.31;;;15.09;100.00
21980;BME280;11154;48.558;9.234;2023-05-12T04:03:39;97188.75;;;15.10;100.00
21980;BME280;11154;48.558;9.234;2023-05-12T04:05:41;97197.59;;;15.10;100.00
21980;BME280;11154;48.558;9.234;2023-05-12T04:07:43;97196.59;;;15.11;100.00
21980;BME280;11154;48.558;9.234;2023-05-12T04:09:46;97192.06;;;15.12;100.00
21980;BME280;11154;48.558;9.234;2023-05-12T04:11:47;97191.88;;;15.13;100.00
21980;BME280;11154;48.558;9.234;2023-05-12T04:13:49;97190.00;;;15.13;100.00
21980;BME280;11154;48.558;9.234;2023-05-12T04:15:54;97191.66;;;15.14;100.00
21980;BME280;11154;48.558;9.234;2023-05-12T04:17:56;97189.56;;;15.10;100.00
21980;BME280;11154;48.558;9.234;2023-05-12T04:19:58;97197.81;;;15.09;100.00
21980;BME280;11154;48.558;9.234;2023-05-12T04:22:00;97203.59;;;15.06;100.00
21980;BME280;11154;48.558;9.234;2023-05-12T04:24:01;97198.00;;;15.07;100.00
21980;BME280;11154;48.558;9.234;2023-05-12T04:26:04;97197.81;;;15.09;100.00
21980;BME280;11154;48.558;9.234;2023-05-12T04:28:06;97203.38;;;15.07;100.00
21980;BME280;11154;48.558;9.234;2023-05-12T04:30:08;97201.50;;;15.08;100.00
21980;BME280;11154;48.558;9.234;2023-05-12T04:32:10;97201.50;;;15.08;100.00
21980;BME280;11154;48.558;9.234;2023-05-12T04:34:12;97209.38;;;15.09;100.00
21980;BME280;11154;48.558;9.234;2023-05-12T04:36:13;97207.72;;;15.08;100.00
21980;BME280;11154;48.558;9.234;2023-05-12T04:38:15;97208.72;;;15.07;100.00
21980;BME280;11154;48.558;9.234;2023-05-12T04:40:17;97219.66;;;15.06;100.00
21980;BME280;11154;48.558;9.234;2023-05-12T04:42:20;97216.97;;;15.06;100.00
21980;BME280;11154;48.558;9.234;2023-05-12T04:44:22;97214.66;;;15.03;100.00
21980;BME280;11154;48.558;9.234;2023-05-12T04:46:24;97215.91;;;15.00;100.00
21980;BME280;11154;48.558;9.234;2023-05-12T04:48:25;97216.31;;;15.04;100.00
21980;BME280;11154;48.558;9.234;2023-05-12T04:50:27;97218.81;;;15.05;100.00
21980;BME280;11154;48.558;9.234;2023-05-12T04:52:29;97207.88;;;15.07;100.00
21980;BME280;11154;48.558;9.234;2023-05-12T04:54:30;97223.34;;;15.05;100.00
21980;BME280;11154;48.558;9.234;2023-05-12T04:56:32;97225.38;;;15.03;100.00
21980;BME280;11154;48.558;9.234;2023-05-12T04:58:35;97221.69;;;15.04;100.00
21980;BME280;11154;48.558;9.234;2023-05-12T05:00:37;97216.31;;;15.04;100.00
21980;BME280;11154;48.558;9.234;2023-05-12T05:02:39;97220.66;;;15.05;100.00
21980;BME280;11154;48.558;9.234;2023-05-12T05:04:41;97223.94;;;15.07;100.00
21980;BME280;11154;48.558;9.234;2023-05-12T05:06:43;97222.94;;;15.08;100.00
21980;BME280;11154;48.558;9.234;2023-05-12T05:08:44;97224.22;;;15.12;100.00
21980;BME280;11154;48.558;9.234;2023-05-12T05:10:46;97214.53;;;15.11;100.00
21980;BME280;11154;48.558;9.234;2023-05-12T05:12:48;97224.22;;;15.12;100.00
21980;BME280;11154;48.558;9.234;2023-05-12T05:14:51;97224.38;;;15.10;100.00
21980;BME280;11154;48.558;9.234;2023-05-12T05:16:52;97226.91;;;15.12;100.00
21980;BME280;11154;48.558;9.234;2023-05-12T05:18:54;97232.47;;;15.16;100.00
21980;BME280;11154;48.558;9.234;2023-05-12T05:20:56;97227.34;;;15.21;100.00
21980;BME280;11154;48.558;9.234;2023-05-12T05:22:58;97230.03;;;15.21;100.00
21980;BME280;11154;48.558;9.234;2023-05-12T05:25:00;97232.16;;;15.26;100.00
21980;BME280;11154;48.558;9.234;2023-05-12T05:27:01;97234.03;;;15.32;100.00
21980;BME280;11154;48.558;9.234;2023-05-12T05:29:03;97234.25;;;15.30;100.00
21980;BME280;11154;48.558;9.234;2023-05-12T05:31:07;97226.66;;;15.34;100.00
21980;BME280;11154;48.558;9.234;2023-05-12T05:33:08;97231.00;;;15.35;100.00
21980;BME280;11154;48.558;9.234;2023-05-12T05:35:11;97233.66;;;15.35;100.00
21980;BME280;11154;48.558;9.234;2023-05-12T05:37:13;97230.78;;;15.36;100.00
21980;BME280;11154;48.558;9.234;2023-05-12T05:39:15;97227.25;;;15.29;100.00
21980;BME280;11154;48.558;9.234;2023-05-12T05:41:17;97232.59;;;15.29;100.00
21980;BME280;11154;48.558;9.234;2023-05-12T05:43:18;97237.53;;;15.32;100.00
21980;BME280;11154;48.558;9.234;2023-05-12T05:45:20;97237.53;;;15.32;100.00
21980;BME280;11154;48.558;9.234;2023-05-12T05:47:23;97234.88;;;15.32;100.00
21980;BME280;11154;48.558;9.234;2023-05-12T05:49:27;97228.47;;;15.33;100.00
21980;BME280;11154;48.558;9.234;2023-05-12T05:51:29;97233.84;;;15.33;100.00
21980;BME280;11154;48.558;9.234;2023-05-12T05:53:31;97235.50;;;15.34;100.00
21980;BME280;11154;48.558;9.234;2023-05-12T05:55:32;97226.81;;;15.32;100.00
21980;BME280;11154;48.558;9.234;2023-05-12T05:57:34;97240.44;;;15.31;100.00
21980;BME280;11154;48.558;9.234;2023-05-12T05:59:37;97236.28;;;15.28;100.00
21980;BME280;11154;48.558;9.234;2023-05-12T06:01:38;97241.28;;;15.31;100.00
21980;BME280;11154;48.558;9.234;2023-05-12T06:03:41;97250.75;;;15.34;100.00
21980;BME280;11154;48.558;9.234;2023-05-12T06:05:43;97244.56;;;15.33;100.00
21980;BME280;11154;48.558;9.234;2023-05-12T06:07:45;97245.03;;;15.43;100.00
21980;BME280;11154;48.558;9.234;2023-05-12T06:09:47;97250.41;;;15.43;100.00
21980;BME280;11154;48.558;9.234;2023-05-12T06:11:48;97250.41;;;15.43;100.00
21980;BME280;11154;48.558;9.234;2023-05-12T06:13:50;97244.19;;;15.43;100.00
21980;BME280;11154;48.558;9.234;2023-05-12T06:15:52;97250.78;;;15.40;100.00
21980;BME280;11154;48.558;9.234;2023-05-12T06:17:54;97258.03;;;15.46;100.00
21980;BME280;11154;48.558;9.234;2023-05-12T06:19:57;97260.34;;;15.49;100.00
21980;BME280;11154;48.558;9.234;2023-05-12T06:22:02;97255.56;;;15.51;100.00
21980;BME280;11154;48.558;9.234;2023-05-12T06:24:04;97252.41;;;15.35;100.00
21980;BME280;11154;48.558;9.234;2023-05-12T06:26:05;97250.59;;;15.14;100.00
21980;BME280;11154;48.558;9.234;2023-05-12T06:28:08;97263.28;;;15.27;100.00
21980;BME280;11154;48.558;9.234;2023-05-12T06:30:11;97248.09;;;15.34;100.00
21980;BME280;11154;48.558;9.234;2023-05-12T06:32:13;97259.84;;;15.39;100.00
21980;BME280;11154;48.558;9.234;2023-05-12T06:34:14;97249.56;;;15.43;100.00
21980;BME280;11154;48.558;9.234;2023-05-12T06:36:18;97256.19;;;15.47;100.00
21980;BME280;11154;48.558;9.234;2023-05-12T06:38:19;97254.75;;;15.44;100.00
21980;BME280;11154;48.558;9.234;2023-05-12T06:40:21;97260.34;;;15.49;100.00
21980;BME280;11154;48.558;9.234;2023-05-12T06:42:23;97256.38;;;15.45;100.00
21980;BME280;11154;48.558;9.234;2023-05-12T06:44:24;97247.53;;;15.51;100.00
21980;BME280;11154;48.558;9.234;2023-05-12T06:46:26;97259.75;;;15.54;100.00
21980;BME280;11154;48.558;9.234;2023-05-12T06:48:28;97257.88;;;15.54;100.00
21980;BME280;11154;48.558;9.234;2023-05-12T06:50:29;97255.78;;;15.50;100.00
21980;BME280;11154;48.558;9.234;2023-05-12T06:52:33;97258.66;;;15.48;100.00
21980;BME280;11154;48.558;9.234;2023-05-12T06:54:34;97262.88;;;15.64;100.00
21980;BME280;11154;48.558;9.234;2023-05-12T06:56:36;97265.03;;;15.81;100.00
21980;BME280;11154;48.558;9.234;2023-05-12T06:58:38;97262.94;;;15.83;100.00
21980;BME280;11154;48.558;9.234;2023-05-12T07:00:40;97267.53;;;15.89;100.00
21980;BME280;11154;48.558;9.234;2023-05-12T07:02:41;97258.88;;;15.93;99.94
21980;BME280;11154;48.558;9.234;2023-05-12T07:04:43;97261.97;;;15.90;97.90
21980;BME280;11154;48.558;9.234;2023-05-12T07:06:45;97267.50;;;15.83;97.19
21980;BME280;11154;48.558;9.234;2023-05-12T07:08:48;97265.03;;;15.81;97.72
21980;BME280;11154;48.558;9.234;2023-05-12T07:10:50;97266.28;;;15.85;98.62
21980;BME280;11154;48.558;9.234;2023-05-12T07:12:52;97254.13;;;15.89;98.68
21980;BME280;11154;48.558;9.234;2023-05-12T07:14:53;97253.31;;;15.95;99.92
21980;BME280;11154;48.558;9.234;2023-05-12T07:16:55;97254.97;;;15.96;100.00
21980;BME280;11154;48.558;9.234;2023-05-12T07:18:57;97262.81;;;15.97;100.00
21980;BME280;11154;48.558;9.234;2023-05-12T07:20:59;97255.19;;;16.01;100.00
21980;BME280;11154;48.558;9.234;2023-05-12T07:23:00;97253.34;;;16.01;100.00
21980;BME280;11154;48.558;9.234;2023-05-12T07:25:05;97261.38;;;16.01;100.00
21980;BME280;11154;48.558;9.234;2023-05-12T07:27:07;97256.44;;;15.98;100.00
21980;BME280;11154;48.558;9.234;2023-05-12T07:29:08;97258.88;;;15.93;98.18
21980;BME280;11154;48.558;9.234;2023-05-12T07:31:10;97256.19;;;15.87;96.16
21980;BME280;11154;48.558;9.234;2023-05-12T07:33:12;97258.84;;;15.87;95.90
21980;BME280;11154;48.558;9.234;2023-05-12T07:35:14;97258.63;;;15.82;93.94
21980;BME280;11154;48.558;9.234;2023-05-12T07:37:16;97257.19;;;15.86;94.63
21980;BME280;11154;48.558;9.234;2023-05-12T07:39:17;97262.19;;;15.89;95.10
21980;BME280;11154;48.558;9.234;2023-05-12T07:41:24;97260.94;;;15.91;94.86
21980;BME280;11154;48.558;9.234;2023-05-12T07:43:26;97252.69;;;15.93;96.16
21980;BME280;11154;48.558;9.234;2023-05-12T07:45:27;97243.66;;;16.07;100.00
21980;BME280;11154;48.558;9.234;2023-05-12T07:47:29;97248.19;;;16.06;96.86
21980;BME280;11154;48.558;9.234;2023-05-12T07:49:31;97243.66;;;16.07;95.43
21980;BME280;11154;48.558;9.234;2023-05-12T07:51:32;97247.59;;;16.11;95.09
21980;BME280;11154;48.558;9.234;2023-05-12T07:53:34;97250.69;;;16.14;94.64
21980;BME280;11154;48.558;9.234;2023-05-12T07:55:36;97245.34;;;16.21;97.52
21980;BME280;11154;48.558;9.234;2023-05-12T07:57:39;97246.97;;;16.22;95.96
21980;BME280;11154;48.558;9.234;2023-05-12T07:59:41;97246.56;;;16.18;95.16
21980;BME280;11154;48.558;9.234;2023-05-12T08:01:43;97244.31;;;16.15;94.83
21980;BME280;11154;48.558;9.234;2023-05-12T08:03:45;97241.97;;;15.93;96.61
21980;BME280;11154;48.558;9.234;2023-05-12T08:05:46;97249.25;;;15.65;96.94
21980;BME280;11154;48.558;9.234;2023-05-12T08:07:48;97243.47;;;15.62;98.00
21980;BME280;11154;48.558;9.234;2023-05-12T08:09:50;97245.50;;;15.53;94.01
21980;BME280;11154;48.558;9.234;2023-05-12T08:11:51;97250.47;;;15.56;95.55
21980;BME280;11154;48.558;9.234;2023-05-12T08:13:55;97245.97;;;15.63;95.81
21980;BME280;11154;48.558;9.234;2023-05-12T08:15:56;97245.56;;;15.66;94.09
21980;BME280;11154;48.558;9.234;2023-05-12T08:17:58;97250.09;;;15.66;92.37
21980;BME280;11154;48.558;9.234;2023-05-12T08:20:00;97238.97;;;15.62;92.68
21980;BME280;11154;48.558;9.234;2023-05-12T08:22:03;97254.84;;;15.70;92.97
21980;BME280;11154;48.558;9.234;2023-05-12T08:24:05;97248.03;;;15.68;90.74
21980;BME280;11154;48.558;9.234;2023-05-12T08:26:07;97245.19;;;15.76;90.93
21980;BME280;11154;48.558;9.234;2023-05-12T08:28:08;97253.72;;;15.86;92.20
21980;BME280;11154;48.558;9.234;2023-05-12T08:30:12;97246.91;;;15.89;91.09
21980;BME280;11154;48.558;9.234;2023-05-12T08:32:14;97256.41;;;15.92;91.13
21980;BME280;11154;48.558;9.234;2023-05-12T08:34:16;97248.00;;;16.14;89.62
21980;BME280;11154;48.558;9.234;2023-05-12T08:36:17;97251.38;;;16.29;89.58
21980;BME280;11154;48.558;9.234;2023-05-12T08:38:19;97254.91;;;16.36;89.06
21980;BME280;11154;48.558;9.234;2023-05-12T08:40:22;97251.22;;;16.44;88.28
21980;BME280;11154;48.558;9.234;2023-05-12T08:42:30;97253.47;;;16.47;87.83
21980;BME280;11154;48.558;9.234;2023-05-12T08:44:36;97258.22;;;16.51;88.07
21980;BME280;11154;48.558;9.234;2023-05-12T08:46:41;97250.38;;;16.56;87.02
21980;BME280;11154;48.558;9.234;2023-05-12T08:48:44;97260.31;;;16.56;87.76
21980;BME280;11154;48.558;9.234;2023-05-12T08:50:48;97255.75;;;16.56;88.42
21980;BME280;11154;48.558;9.234;2023-05-12T08:52:50;97254.53;;;16.59;87.87
21980;BME280;11154;48.558;9.234;2023-05-12T08:54:52;97254.53;;;16.65;87.67
21980;BME280;11154;48.558;9.234;2023-05-12T08:56:54;97251.22;;;16.69;86.84
21980;BME280;11154;48.558;9.234;2023-05-12T08:58:56;97249.56;;;16.68;85.51
21980;BME280;11154;48.558;9.234;2023-05-12T09:00:59;97257.03;;;16.73;86.75
21980;BME280;11154;48.558;9.234;2023-05-12T09:03:04;97252.69;;;16.72;86.31
21980;BME280;11154;48.558;9.234;2023-05-12T09:05:06;97252.88;;;16.77;87.74
21980;BME280;11154;48.558;9.234;2023-05-12T09:07:09;97247.94;;;16.74;87.04
21980;BME280;11154;48.558;9.234;2023-05-12T09:09:12;97257.63;;;16.81;89.10
21980;BME280;11154;48.558;9.234;2023-05-12T09:11:15;97251.63;;;16.79;86.75
21980;BME280;11154;48.558;9.234;2023-05-12T09:13:22;97253.50;;;16.53;86.67
21980;BME280;11154;48.558;9.234;2023-05-12T09:15:33;97241.09;;;16.46;87.41
21980;BME280;11154;48.558;9.234;2023-05-12T09:17:35;97248.28;;;16.32;85.89
21980;BME280;11154;48.558;9.234;2023-05-12T09:19:38;97248.06;;;16.34;87.01
21980;BME280;11154;48.558;9.234;2023-05-12T09:21:40;97250.97;;;16.32;85.88
21980;BME280;11154;48.558;9.234;2023-05-12T09:23:51;97251.59;;;16.41;86.93
21980;BME280;11154;48.558;9.234;2023-05-12T09:25:58;97249.75;;;16.48;85.79
21980;BME280;11154;48.558;9.234;2023-05-12T09:28:01;97252.47;;;16.61;84.37
21980;BME280;11154;48.558;9.234;2023-05-12T09:30:03;97249.16;;;16.65;83.17
21980;BME280;11154;48.558;9.234;2023-05-12T09:32:05;97248.75;;;16.62;83.99
21980;BME280;11154;48.558;9.234;2023-05-12T09:34:08;97245.44;;;16.60;85.22
21980;BME280;11154;48.558;9.234;2023-05-12T09:36:15;97244.22;;;16.68;86.65
21980;BME280;11154;48.558;9.234;2023-05-12T09:38:17;97244.00;;;16.76;88.00
21980;BME280;11154;48.558;9.234;2023-05-12T09:40:19;97238.81;;;16.75;84.15
21980;BME280;11154;48.558;9.234;2023-05-12T09:42:21;97254.97;;;16.94;81.44
21980;BME280;11154;48.558;9.234;2023-05-12T09:44:25;97252.66;;;17.11;80.06
21980;BME280;11154;48.558;9.234;2023-05-12T09:46:28;97257.44;;;17.15;78.79
21980;BME280;11154;48.558;9.234;2023-05-12T09:48:30;97255.97;;;17.26;79.34
21980;BME280;11154;48.558;9.234;2023-05-12T09:50:32;97256.16;;;17.37;79.12
21980;BME280;11154;48.558;9.234;2023-05-12T09:52:37;97251.41;;;17.39;77.18
21980;BME280;11154;48.558;9.234;2023-05-12T09:54:40;97247.06;;;17.44;78.00
21980;BME280;11154;48.558;9.234;2023-05-12T09:56:41;97243.72;;;17.49;78.53
21980;BME280;11154;48.558;9.234;2023-05-12T09:58:45;97242.88;;;17.55;79.79
21980;BME280;11154;48.558;9.234;2023-05-12T10:00:48;97251.56;;;17.57;78.61
21980;BME280;11154;48.558;9.234;2023-05-12T10:02:53;97245.53;;;17.68;79.85
21980;BME280;11154;48.558;9.234;2023-05-12T10:05:04;97248.03;;;17.69;77.59
21980;BME280;11154;48.558;9.234;2023-05-12T10:07:07;97243.28;;;17.65;77.15
21980;BME280;11154;48.558;9.234;2023-05-12T10:09:17;97244.13;;;17.59;74.48
21980;BME280;11154;48.558;9.234;2023-05-12T10:11:21;97237.31;;;17.56;76.21
21980;BME280;11154;48.558;9.234;2023-05-12T10:13:23;97246.25;;;17.38;79.45
21980;BME280;11154;48.558;9.234;2023-05-12T10:15:26;97236.31;;;17.38;80.63
21980;BME280;11154;48.558;9.234;2023-05-12T10:17:28;97233.84;;;17.30;81.02
21980;BME280;11154;48.558;9.234;2023-05-12T10:19:34;97242.34;;;17.27;81.86
21980;BME280;11154;48.558;9.234;2023-05-12T10:21:36;97245.84;;;17.08;80.53
21980;BME280;11154;48.558;9.234;2023-05-12T10:23:39;97239.03;;;17.06;81.11
21980;BME280;11154;48.558;9.234;2023-05-12T10:25:43;97240.88;;;17.05;82.92
21980;BME280;11154;48.558;9.234;2023-05-12T10:27:46;97239.25;;;16.98;82.68
21980;BME280;11154;48.558;9.234;2023-05-12T10:29:49;97236.38;;;16.93;83.80
21980;BME280;11154;48.558;9.234;2023-05-12T10:31:51;97237.81;;;16.95;83.97
21980;BME280;11154;48.558;9.234;2023-05-12T10:33:56;97244.22;;;16.94;84.05
21980;BME280;11154;48.558;9.234;2023-05-12T10:35:58;97248.56;;;16.95;82.71
21980;BME280;11154;48.558;9.234;2023-05-12T10:38:01;97245.03;;;16.95;81.79
21980;BME280;11154;48.558;9.234;2023-05-12T10:40:07;97247.94;;;16.93;82.06
21980;BME280;11154;48.558;9.234;2023-05-12T10:42:15;97252.88;;;17.09;82.33